createdAt,value
2022-08-03T00:02:25.352Z,19.60
2022-08-03T00:07:30.249Z,19.50
2022-08-03T00:12:33.778Z,19.60
2022-08-03T00:17:52.414Z,19.60
2022-08-03T00:22:58.728Z,19.60
2022-08-03T00:28:02.667Z,19.70
2022-08-03T00:33:05.926Z,19.70
2022-08-03T00:38:13.318Z,19.70
2022-08-03T00:43:16.734Z,19.70
2022-08-03T00:48:33.210Z,19.50
2022-08-03T00:53:39.286Z,19.50
2022-08-03T00:58:45.148Z,19.40
2022-08-03T01:03:48.543Z,19.40
2022-08-03T01:09:00.326Z,19.40
2022-08-03T01:14:18.904Z,19.50
2022-08-03T01:19:44.864Z,19.50
2022-08-03T01:24:59.960Z,19.50
2022-08-03T01:30:08.972Z,19.60
2022-08-03T01:35:15.872Z,19.60
2022-08-03T01:40:21.997Z,19.60
2022-08-03T01:45:28.278Z,19.60
2022-08-03T01:50:37.654Z,19.50
2022-08-03T01:55:41.354Z,19.40
2022-08-03T02:00:46.647Z,19.30
2022-08-03T02:06:06.126Z,19.20
2022-08-03T02:11:15.700Z,19.10
2022-08-03T02:16:21.247Z,19.10
2022-08-03T02:21:56.374Z,19.00
2022-08-03T02:26:50.489Z,18.90
2022-08-03T02:31:59.568Z,18.90
2022-08-03T02:37:05.764Z,18.90
2022-08-03T02:42:12.799Z,18.90
2022-08-03T02:47:21.541Z,18.90
2022-08-03T02:52:28.241Z,18.80
2022-08-03T02:57:35.311Z,18.80
2022-08-03T03:02:43.933Z,18.70
2022-08-03T03:07:51.735Z,18.60
2022-08-03T03:12:58.487Z,18.70
2022-08-03T03:18:04.044Z,18.60
2022-08-03T03:23:07.860Z,18.60
2022-08-03T03:28:12.409Z,18.60
2022-08-03T03:33:17.168Z,18.50
2022-08-03T03:38:21.673Z,18.50
2022-08-03T03:43:25.934Z,18.50
2022-08-03T03:48:30.834Z,18.50
2022-08-03T03:53:35.974Z,18.50
2022-08-03T03:58:39.301Z,18.50
2022-08-03T04:03:44.259Z,18.50
2022-08-03T04:09:04.925Z,18.50
2022-08-03T04:14:12.487Z,18.50
2022-08-03T04:19:23.328Z,18.50
2022-08-03T04:24:31.879Z,18.60
2022-08-03T04:29:39.999Z,18.70
2022-08-03T04:34:53.300Z,18.80
2022-08-03T04:40:00.384Z,18.90
2022-08-03T04:45:05.808Z,19.00
2022-08-03T04:50:15.036Z,19.00
2022-08-03T04:55:28.942Z,18.80
2022-08-03T05:00:33.981Z,18.70
2022-08-03T05:05:49.846Z,18.70
2022-08-03T05:10:54.648Z,18.70
2022-08-03T05:15:57.839Z,18.70
2022-08-03T05:21:02.833Z,18.90
2022-08-03T05:26:06.203Z,19.00
2022-08-03T05:31:09.543Z,19.10
2022-08-03T05:36:14.742Z,19.60
2022-08-03T05:41:21.431Z,20.30
2022-08-03T05:46:27.510Z,20.90
2022-08-03T05:51:32.458Z,21.30
2022-08-03T05:56:35.753Z,21.60
2022-08-03T06:01:38.924Z,21.90
2022-08-03T06:06:43.526Z,22.20
2022-08-03T06:11:46.825Z,22.40
2022-08-03T06:16:50.001Z,22.80
2022-08-03T06:21:54.570Z,22.90
2022-08-03T06:26:57.829Z,23.00
2022-08-03T06:32:00.982Z,23.10
2022-08-03T06:37:05.937Z,23.30
2022-08-03T06:42:10.496Z,24.00
2022-08-03T06:47:13.865Z,25.80
2022-08-03T06:52:37.728Z,27.20
2022-08-03T06:57:41.749Z,28.90
2022-08-03T07:02:44.906Z,30.00
2022-08-03T07:07:49.640Z,30.40
2022-08-03T07:12:56.599Z,30.00
2022-08-03T07:18:00.581Z,30.60
2022-08-03T07:23:05.213Z,31.00
2022-08-03T07:28:08.662Z,31.80
2022-08-03T07:33:12.297Z,32.10
2022-08-03T07:38:20.814Z,32.10
2022-08-03T07:43:24.848Z,32.30
2022-08-03T07:48:28.420Z,31.70
2022-08-03T07:53:33.487Z,32.00
2022-08-03T07:58:41.204Z,32.40
2022-08-03T08:03:52.706Z,32.90
2022-08-03T08:09:02.291Z,32.60
2022-08-03T08:14:05.942Z,32.40
2022-08-03T08:19:09.378Z,32.50
2022-08-03T08:24:18.275Z,32.10
2022-08-03T08:29:23.857Z,31.80
2022-08-03T08:34:27.181Z,31.90
2022-08-03T08:39:31.843Z,32.30
2022-08-03T08:44:35.395Z,32.50
2022-08-03T08:49:49.493Z,32.50
2022-08-03T08:55:08.507Z,32.60
2022-08-03T09:00:15.429Z,32.70
2022-08-03T09:05:31.492Z,32.90
2022-08-03T09:10:45.366Z,33.60
2022-08-03T09:16:00.753Z,33.70
2022-08-03T09:21:30.516Z,33.60
2022-08-03T09:26:37.051Z,33.70
2022-08-03T09:31:43.534Z,33.90
2022-08-03T09:36:48.607Z,34.30
2022-08-03T09:42:07.467Z,34.20
2022-08-03T09:47:11.411Z,34.40
2022-08-03T09:52:37.929Z,34.20
2022-08-03T09:57:46.296Z,34.30
2022-08-03T10:02:50.896Z,34.50
2022-08-03T10:07:54.610Z,35.30
2022-08-03T10:12:59.467Z,34.70
2022-08-03T10:18:03.438Z,34.30
2022-08-03T10:23:07.470Z,34.30
2022-08-03T10:28:16.504Z,34.60
2022-08-03T10:33:51.983Z,34.20
2022-08-03T10:38:52.505Z,34.10
2022-08-03T10:44:00.775Z,33.50
2022-08-03T10:49:04.838Z,33.60
2022-08-03T10:54:11.819Z,33.70
2022-08-03T10:59:27.500Z,33.90
2022-08-03T11:04:31.366Z,35.50
2022-08-03T11:09:43.544Z,35.80
2022-08-03T11:14:50.167Z,35.00
2022-08-03T11:19:56.486Z,34.60
2022-08-03T11:25:01.775Z,34.90
2022-08-03T11:30:09.335Z,35.50
2022-08-03T11:35:14.077Z,35.30
2022-08-03T11:40:36.024Z,35.80
2022-08-03T11:45:57.258Z,36.20
2022-08-03T11:51:01.072Z,36.70
2022-08-03T11:56:04.747Z,37.10
2022-08-03T12:01:21.322Z,36.70
2022-08-03T12:06:26.124Z,36.10
2022-08-03T12:11:30.647Z,36.50
2022-08-03T12:16:35.219Z,37.90
2022-08-03T12:21:57.292Z,38.70
2022-08-03T12:27:00.746Z,38.90
2022-08-03T12:32:05.726Z,39.20
2022-08-03T12:37:20.276Z,39.40
2022-08-03T12:42:31.823Z,39.50
2022-08-03T12:47:57.855Z,40.70
2022-08-03T12:53:02.540Z,40.40
2022-08-03T12:58:07.564Z,40.80
2022-08-03T13:03:39.344Z,40.30
2022-08-03T13:08:35.631Z,40.90
2022-08-03T13:13:42.273Z,39.80
2022-08-03T13:18:48.056Z,40.30
2022-08-03T13:23:51.614Z,39.50
2022-08-03T13:28:55.118Z,38.40
2022-08-03T13:33:59.973Z,38.20
2022-08-03T13:39:03.315Z,38.50
2022-08-03T13:44:28.251Z,39.50
2022-08-03T13:49:34.942Z,40.10
2022-08-03T13:54:38.452Z,40.00
2022-08-03T13:59:48.105Z,40.10
2022-08-03T14:04:53.023Z,39.30
2022-08-03T14:09:56.968Z,37.90
2022-08-03T14:15:01.700Z,36.10
2022-08-03T14:20:36.208Z,35.20
2022-08-03T14:25:50.086Z,34.90
2022-08-03T14:30:55.916Z,34.50
2022-08-03T14:36:00.780Z,34.20
2022-08-03T14:41:04.111Z,34.00
2022-08-03T14:46:07.449Z,34.00
2022-08-03T14:51:12.025Z,33.90
2022-08-03T14:56:15.252Z,33.70
2022-08-03T15:02:02.271Z,33.70
2022-08-03T15:06:42.910Z,33.40
2022-08-03T15:11:49.249Z,33.30
2022-08-03T15:16:52.677Z,33.20
2022-08-03T15:21:57.224Z,33.10
2022-08-03T15:27:06.471Z,33.00
2022-08-03T15:32:09.851Z,32.90
2022-08-03T15:37:16.559Z,32.90
2022-08-03T15:42:19.823Z,32.80
2022-08-03T15:47:24.218Z,33.00
2022-08-03T15:52:28.880Z,33.00
2022-08-03T15:57:32.078Z,32.90
2022-08-03T16:02:35.659Z,32.90
2022-08-03T16:08:03.041Z,32.80
2022-08-03T16:13:07.264Z,32.60
2022-08-03T16:18:10.352Z,32.40
2022-08-03T16:23:18.557Z,32.40
2022-08-03T16:28:23.526Z,32.30
2022-08-03T16:33:26.771Z,32.20
2022-08-03T16:38:31.586Z,32.10
2022-08-03T16:43:35.724Z,32.10
2022-08-03T16:48:40.285Z,32.10
2022-08-03T16:54:07.404Z,32.20
2022-08-03T16:59:07.988Z,32.30
2022-08-03T17:04:11.860Z,32.20
2022-08-03T17:09:20.621Z,32.10
2022-08-03T17:14:28.248Z,32.10
2022-08-03T17:19:34.985Z,31.90
2022-08-03T17:24:46.297Z,31.70
2022-08-03T17:29:52.920Z,31.50
2022-08-03T17:34:57.077Z,31.20
2022-08-03T17:40:03.782Z,31.00
2022-08-03T17:45:08.738Z,30.80
2022-08-03T17:50:25.327Z,30.80
2022-08-03T17:55:55.778Z,30.70
2022-08-03T18:02:00.651Z,30.60
2022-08-03T18:06:55.795Z,30.70
2022-08-03T18:12:06.458Z,30.60
2022-08-03T18:17:19.999Z,30.60
2022-08-03T18:22:25.261Z,30.30
2022-08-03T18:27:42.766Z,30.20
2022-08-03T18:33:00.893Z,30.00
2022-08-03T18:38:16.638Z,29.80
2022-08-03T18:43:46.477Z,29.70
2022-08-03T18:48:56.267Z,29.40
2022-08-03T18:54:08.202Z,29.30
2022-08-03T18:59:30.194Z,29.10
2022-08-03T19:04:37.267Z,29.00
2022-08-03T19:09:49.181Z,28.90
2022-08-03T19:14:57.405Z,29.00
2022-08-03T19:20:03.601Z,28.90
2022-08-03T19:25:12.019Z,28.50
2022-08-03T19:30:32.338Z,28.20
2022-08-03T19:35:51.124Z,28.20
2022-08-03T19:40:59.574Z,28.30
2022-08-03T19:46:12.404Z,28.30
2022-08-03T19:51:17.885Z,28.20
2022-08-03T19:56:46.089Z,28.00
2022-08-03T20:01:52.452Z,27.80
2022-08-03T20:06:58.869Z,27.70
2022-08-03T20:12:02.200Z,27.60
2022-08-03T20:17:09.295Z,27.40
2022-08-03T20:22:14.367Z,27.40
2022-08-03T20:27:22.104Z,27.20
2022-08-03T20:32:35.735Z,27.10
2022-08-03T20:37:39.012Z,26.90
2022-08-03T20:42:45.650Z,26.60
2022-08-03T20:47:51.825Z,26.40
2022-08-03T20:52:55.950Z,26.30
2022-08-03T20:58:00.786Z,26.20
2022-08-03T21:03:08.971Z,26.20
2022-08-03T21:08:15.232Z,26.20
2022-08-03T21:13:25.004Z,26.10
2022-08-03T21:18:36.833Z,26.10
2022-08-03T21:23:48.742Z,26.20
2022-08-03T21:28:55.702Z,26.10
2022-08-03T21:34:04.122Z,26.10
2022-08-03T21:39:09.402Z,26.00
2022-08-03T21:44:13.195Z,25.90
2022-08-03T21:50:02.669Z,25.60
2022-08-03T21:54:44.107Z,25.50
2022-08-03T21:59:55.044Z,25.60
2022-08-03T22:04:59.924Z,25.50
2022-08-03T22:10:05.126Z,25.50
2022-08-03T22:15:12.030Z,25.50
2022-08-03T22:20:16.602Z,25.10
2022-08-03T22:25:22.198Z,24.80
2022-08-03T22:30:25.670Z,24.70
2022-08-03T22:35:44.367Z,24.60
2022-08-03T22:40:51.232Z,24.70
2022-08-03T22:46:09.427Z,24.70
2022-08-03T22:51:17.431Z,24.80
2022-08-03T22:56:21.003Z,24.90
2022-08-03T23:01:27.114Z,24.80
2022-08-03T23:06:35.706Z,24.80
2022-08-03T23:11:43.059Z,24.70
2022-08-03T23:16:51.298Z,24.70
2022-08-03T23:22:02.607Z,24.60
2022-08-03T23:27:08.487Z,24.60
2022-08-03T23:32:14.064Z,24.40
2022-08-03T23:37:20.221Z,24.30
2022-08-03T23:42:24.888Z,24.10
2022-08-03T23:47:46.968Z,23.80
2022-08-03T23:53:01.507Z,23.60
2022-08-03T23:58:10.879Z,23.50
